sensor_id;sensor_type;location;lat;lon;timestamp;temperature;humidity
3942;DHT22;1985;48.592;8.850;2023-12-29T00:01:54;9.50;99.90
3942;DHT22;1985;48.592;8.850;2023-12-29T00:04:20;9.30;99.90
3942;DHT22;1985;48.592;8.850;2023-12-29T00:06:46;9.20;99.90
3942;DHT22;1985;48.592;8.850;2023-12-29T00:09:11;9.00;99.90
3942;DHT22;1985;48.592;8.850;2023-12-29T00:11:38;9.00;99.90
3942;DHT22;1985;48.592;8.850;2023-12-29T00:14:04;8.90;99.90
3942;DHT22;1985;48.592;8.850;2023-12-29T00:16:29;8.80;99.90
3942;DHT22;1985;48.592;8.850;2023-12-29T00:18:55;8.80;99.90
3942;DHT22;1985;48.592;8.850;2023-12-29T00:21:21;8.80;99.90
3942;DHT22;1985;48.592;8.850;2023-12-29T00:23:47;8.70;99.90
3942;DHT22;1985;48.592;8.850;2023-12-29T00:26:16;8.70;99.90
3942;DHT22;1985;48.592;8.850;2023-12-29T00:28:42;8.70;99.90
3942;DHT22;1985;48.592;8.850;2023-12-29T00:31:08;8.80;99.90
3942;DHT22;1985;48.592;8.850;2023-12-29T00:33:34;8.80;99.90
3942;DHT22;1985;48.592;8.850;2023-12-29T00:36:00;8.70;99.90
3942;DHT22;1985;48.592;8.850;2023-12-29T00:38:26;8.70;99.90
3942;DHT22;1985;48.592;8.850;2023-12-29T00:40:53;8.70;99.90
3942;DHT22;1985;48.592;8.850;2023-12-29T00:43:18;8.60;99.90
3942;DHT22;1985;48.592;8.850;2023-12-29T00:45:44;8.60;99.90
3942;DHT22;1985;48.592;8.850;2023-12-29T00:48:10;8.60;99.90
3942;DHT22;1985;48.592;8.850;2023-12-29T00:50:35;8.50;99.90
3942;DHT22;1985;48.592;8.850;2023-12-29T00:53:01;8.50;99.90
3942;DHT22;1985;48.592;8.850;2023-12-29T00:55:26;8.50;99.90
3942;DHT22;1985;48.592;8.850;2023-12-29T00:57:52;8.40;99.90
3942;DHT22;1985;48.592;8.850;2023-12-29T01:00:18;8.40;99.90
3942;DHT22;1985;48.592;8.850;2023-12-29T01:02:43;8.40;99.90
3942;DHT22;1985;48.592;8.850;2023-12-29T01:05:09;8.30;99.90
3942;DHT22;1985;48.592;8.850;2023-12-29T01:07:35;8.40;99.90
3942;DHT22;1985;48.592;8.850;2023-12-29T01:10:00;8.40;99.90
3942;DHT22;1985;48.592;8.850;2023-12-29T01:12:26;8.30;99.90
3942;DHT22;1985;48.592;8.850;2023-12-29T01:14:52;8.30;99.90
3942;DHT22;1985;48.592;8.850;2023-12-29T01:17:18;8.40;99.90
3942;DHT22;1985;48.592;8.850;2023-12-29T01:19:43;8.40;99.90
3942;DHT22;1985;48.592;8.850;2023-12-29T01:22:09;8.40;99.90
3942;DHT22;1985;48.592;8.850;2023-12-29T01:24:34;8.50;99.90
3942;DHT22;1985;48.592;8.850;2023-12-29T01:27:00;8.50;99.90
3942;DHT22;1985;48.592;8.850;2023-12-29T01:29:26;8.60;99.90
3942;DHT22;1985;48.592;8.850;2023-12-29T01:31:51;8.70;99.90
3942;DHT22;1985;48.592;8.850;2023-12-29T01:34:17;8.70;99.90
3942;DHT22;1985;48.592;8.850;2023-12-29T01:36:43;8.60;99.90
3942;DHT22;1985;48.592;8.850;2023-12-29T01:39:08;8.70;99.90
3942;DHT22;1985;48.592;8.850;2023-12-29T01:41:34;8.80;99.90
3942;DHT22;1985;48.592;8.850;2023-12-29T01:46:26;8.80;99.90
3942;DHT22;1985;48.592;8.850;2023-12-29T01:48:53;8.90;99.90
3942;DHT22;1985;48.592;8.850;2023-12-29T01:51:21;8.90;99.90
3942;DHT22;1985;48.592;8.850;2023-12-29T01:53:48;8.90;99.90
3942;DHT22;1985;48.592;8.850;2023-12-29T01:56:14;9.00;99.90
3942;DHT22;1985;48.592;8.850;2023-12-29T01:58:40;9.00;99.90
3942;DHT22;1985;48.592;8.850;2023-12-29T02:01:07;9.10;99.90
3942;DHT22;1985;48.592;8.850;2023-12-29T02:03:33;9.10;99.90
3942;DHT22;1985;48.592;8.850;2023-12-29T02:05:59;9.10;99.90
3942;DHT22;1985;48.592;8.850;2023-12-29T02:08:25;9.00;99.90
3942;DHT22;1985;48.592;8.850;2023-12-29T02:10:51;9.00;99.90
3942;DHT22;1985;48.592;8.850;2023-12-29T02:13:17;8.90;99.90
3942;DHT22;1985;48.592;8.850;2023-12-29T02:15:42;8.90;99.90
3942;DHT22;1985;48.592;8.850;2023-12-29T02:18:14;8.90;99.90
3942;DHT22;1985;48.592;8.850;2023-12-29T02:20:41;8.70;99.90
3942;DHT22;1985;48.592;8.850;2023-12-29T02:23:07;8.80;99.90
3942;DHT22;1985;48.592;8.850;2023-12-29T02:25:34;8.70;99.90
3942;DHT22;1985;48.592;8.850;2023-12-29T02:28:08;8.60;99.90
3942;DHT22;1985;48.592;8.850;2023-12-29T02:33:05;8.60;99.90
3942;DHT22;1985;48.592;8.850;2023-12-29T02:35:38;8.60;99.90
3942;DHT22;1985;48.592;8.850;2023-12-29T02:38:04;8.70;99.90
3942;DHT22;1985;48.592;8.850;2023-12-29T02:40:30;8.70;99.90
3942;DHT22;1985;48.592;8.850;2023-12-29T02:42:56;8.70;99.90
3942;DHT22;1985;48.592;8.850;2023-12-29T02:45:22;8.80;99.90
3942;DHT22;1985;48.592;8.850;2023-12-29T02:47:48;8.80;99.90
3942;DHT22;1985;48.592;8.850;2023-12-29T02:50:14;8.70;99.90
3942;DHT22;1985;48.592;8.850;2023-12-29T02:52:39;8.70;99.90
3942;DHT22;1985;48.592;8.850;2023-12-29T02:55:05;8.60;99.90
3942;DHT22;1985;48.592;8.850;2023-12-29T02:57:31;8.60;99.90
3942;DHT22;1985;48.592;8.850;2023-12-29T02:59:57;8.60;99.90
3942;DHT22;1985;48.592;8.850;2023-12-29T03:02:23;8.60;99.90
3942;DHT22;1985;48.592;8.850;2023-12-29T03:04:49;8.70;99.90
3942;DHT22;1985;48.592;8.850;2023-12-29T03:07:15;8.60;99.90
3942;DHT22;1985;48.592;8.850;2023-12-29T03:09:40;8.70;99.90
3942;DHT22;1985;48.592;8.850;2023-12-29T03:12:06;8.60;99.90
3942;DHT22;1985;48.592;8.850;2023-12-29T03:14:32;8.60;99.90
3942;DHT22;1985;48.592;8.850;2023-12-29T03:16:58;8.50;99.90
3942;DHT22;1985;48.592;8.850;2023-12-29T03:19:24;8.50;99.90
3942;DHT22;1985;48.592;8.850;2023-12-29T03:21:49;8.50;99.90
3942;DHT22;1985;48.592;8.850;2023-12-29T03:24:15;8.60;99.90
3942;DHT22;1985;48.592;8.850;2023-12-29T03:26:41;8.70;99.90
3942;DHT22;1985;48.592;8.850;2023-12-29T03:29:07;8.70;99.90
3942;DHT22;1985;48.592;8.850;2023-12-29T03:31:32;8.70;99.90
3942;DHT22;1985;48.592;8.850;2023-12-29T03:33:58;8.70;99.90
3942;DHT22;1985;48.592;8.850;2023-12-29T03:36:23;8.70;99.90
3942;DHT22;1985;48.592;8.850;2023-12-29T03:38:49;8.70;99.90
3942;DHT22;1985;48.592;8.850;2023-12-29T03:41:15;8.70;99.90
3942;DHT22;1985;48.592;8.850;2023-12-29T03:43:40;8.70;99.90
3942;DHT22;1985;48.592;8.850;2023-12-29T03:46:19;8.70;99.90
3942;DHT22;1985;48.592;8.850;2023-12-29T03:48:45;8.70;99.90
3942;DHT22;1985;48.592;8.850;2023-12-29T03:51:11;8.60;99.90
3942;DHT22;1985;48.592;8.850;2023-12-29T03:53:37;8.70;99.90
3942;DHT22;1985;48.592;8.850;2023-12-29T03:56:13;8.70;99.90
3942;DHT22;1985;48.592;8.850;2023-12-29T03:58:39;8.70;99.90
3942;DHT22;1985;48.592;8.850;2023-12-29T04:03:38;8.80;99.90
3942;DHT22;1985;48.592;8.850;2023-12-29T04:06:04;8.70;99.90
3942;DHT22;1985;48.592;8.850;2023-12-29T04:08:30;8.80;99.90
3942;DHT22;1985;48.592;8.850;2023-12-29T04:10:56;8.90;99.90
3942;DHT22;1985;48.592;8.850;2023-12-29T04:13:22;9.00;99.90
3942;DHT22;1985;48.592;8.850;2023-12-29T04:15:47;9.10;99.90
3942;DHT22;1985;48.592;8.850;2023-12-29T04:18:13;9.10;99.90
3942;DHT22;1985;48.592;8.850;2023-12-29T04:20:39;9.20;99.90
3942;DHT22;1985;48.592;8.850;2023-12-29T04:23:06;9.20;99.90
3942;DHT22;1985;48.592;8.850;2023-12-29T04:25:32;9.30;99.90
3942;DHT22;1985;48.592;8.850;2023-12-29T04:27:57;9.30;99.90
3942;DHT22;1985;48.592;8.850;2023-12-29T04:30:23;9.30;99.90
3942;DHT22;1985;48.592;8.850;2023-12-29T04:32:48;9.20;99.90
3942;DHT22;1985;48.592;8.850;2023-12-29T04:35:14;9.20;99.90
3942;DHT22;1985;48.592;8.850;2023-12-29T04:37:42;9.10;99.90
3942;DHT22;1985;48.592;8.850;2023-12-29T04:40:08;9.20;99.90
3942;DHT22;1985;48.592;8.850;2023-12-29T04:42:33;9.10;99.90
3942;DHT22;1985;48.592;8.850;2023-12-29T04:44:59;9.00;99.90
3942;DHT22;1985;48.592;8.850;2023-12-29T04:47:25;9.00;99.90
3942;DHT22;1985;48.592;8.850;2023-12-29T04:49:50;9.00;99.90
3942;DHT22;1985;48.592;8.850;2023-12-29T04:52:16;9.00;99.90
3942;DHT22;1985;48.592;8.850;2023-12-29T04:54:41;8.90;99.90
3942;DHT22;1985;48.592;8.850;2023-12-29T04:57:07;8.90;99.90
3942;DHT22;1985;48.592;8.850;2023-12-29T04:59:33;8.80;99.90
3942;DHT22;1985;48.592;8.850;2023-12-29T05:01:58;8.80;99.90
3942;DHT22;1985;48.592;8.850;2023-12-29T05:04:24;8.90;99.90
3942;DHT22;1985;48.592;8.850;2023-12-29T05:06:49;8.90;99.90
3942;DHT22;1985;48.592;8.850;2023-12-29T05:09:15;8.90;99.90
3942;DHT22;1985;48.592;8.850;2023-12-29T05:11:41;8.90;99.90
3942;DHT22;1985;48.592;8.850;2023-12-29T05:14:06;8.90;99.90
3942;DHT22;1985;48.592;8.850;2023-12-29T05:16:32;8.90;99.90
3942;DHT22;1985;48.592;8.850;2023-12-29T05:18:58;8.90;99.90
3942;DHT22;1985;48.592;8.850;2023-12-29T05:21:23;8.80;99.90
3942;DHT22;1985;48.592;8.850;2023-12-29T05:23:50;8.80;99.90
3942;DHT22;1985;48.592;8.850;2023-12-29T05:26:15;8.90;99.90
3942;DHT22;1985;48.592;8.850;2023-12-29T05:28:41;9.00;99.90
3942;DHT22;1985;48.592;8.850;2023-12-29T05:31:07;9.00;99.90
3942;DHT22;1985;48.592;8.850;2023-12-29T05:33:33;9.10;99.90
3942;DHT22;1985;48.592;8.850;2023-12-29T05:36:04;9.20;99.90
3942;DHT22;1985;48.592;8.850;2023-12-29T05:38:31;9.20;99.90
3942;DHT22;1985;48.592;8.850;2023-12-29T05:40:57;9.20;99.90
3942;DHT22;1985;48.592;8.850;2023-12-29T05:43:22;9.20;99.90
3942;DHT22;1985;48.592;8.850;2023-12-29T05:45:48;9.20;99.90
3942;DHT22;1985;48.592;8.850;2023-12-29T05:48:14;9.10;99.90
3942;DHT22;1985;48.592;8.850;2023-12-29T05:50:39;9.20;99.90
3942;DHT22;1985;48.592;8.850;2023-12-29T05:53:05;9.10;99.90
3942;DHT22;1985;48.592;8.850;2023-12-29T05:55:31;9.00;99.90
3942;DHT22;1985;48.592;8.850;2023-12-29T05:57:57;9.00;99.90
3942;DHT22;1985;48.592;8.850;2023-12-29T06:00:22;9.10;99.90
3942;DHT22;1985;48.592;8.850;2023-12-29T06:02:48;9.10;99.90
3942;DHT22;1985;48.592;8.850;2023-12-29T06:05:15;9.10;99.90
3942;DHT22;1985;48.592;8.850;2023-12-29T06:07:40;9.00;99.90
3942;DHT22;1985;48.592;8.850;2023-12-29T06:10:06;8.90;99.90
3942;DHT22;1985;48.592;8.850;2023-12-29T06:12:33;8.80;99.90
3942;DHT22;1985;48.592;8.850;2023-12-29T06:14:59;8.80;99.90
3942;DHT22;1985;48.592;8.850;2023-12-29T06:17:24;8.80;99.90
3942;DHT22;1985;48.592;8.850;2023-12-29T06:19:50;8.70;99.90
3942;DHT22;1985;48.592;8.850;2023-12-29T06:22:16;8.60;99.90
3942;DHT22;1985;48.592;8.850;2023-12-29T06:24:42;8.70;99.90
3942;DHT22;1985;48.592;8.850;2023-12-29T06:27:11;8.70;99.90
3942;DHT22;1985;48.592;8.850;2023-12-29T06:29:37;8.60;99.90
3942;DHT22;1985;48.592;8.850;2023-12-29T06:32:03;8.70;99.90
3942;DHT22;1985;48.592;8.850;2023-12-29T06:34:29;8.80;99.90
3942;DHT22;1985;48.592;8.850;2023-12-29T06:36:55;8.80;99.90
3942;DHT22;1985;48.592;8.850;2023-12-29T06:39:20;8.80;99.90
3942;DHT22;1985;48.592;8.850;2023-12-29T06:41:46;8.80;99.90
3942;DHT22;1985;48.592;8.850;2023-12-29T06:44:12;8.80;99.90
3942;DHT22;1985;48.592;8.850;2023-12-29T06:46:38;8.80;99.90
3942;DHT22;1985;48.592;8.850;2023-12-29T06:49:04;8.80;99.90
3942;DHT22;1985;48.592;8.850;2023-12-29T06:51:29;8.80;99.90
3942;DHT22;1985;48.592;8.850;2023-12-29T06:53:55;8.80;99.90
3942;DHT22;1985;48.592;8.850;2023-12-29T06:56:21;8.80;99.90
3942;DHT22;1985;48.592;8.850;2023-12-29T06:58:47;8.80;99.90
3942;DHT22;1985;48.592;8.850;2023-12-29T07:01:12;8.80;99.90
3942;DHT22;1985;48.592;8.850;2023-12-29T07:03:38;8.80;99.90
3942;DHT22;1985;48.592;8.850;2023-12-29T07:06:04;8.80;99.90
3942;DHT22;1985;48.592;8.850;2023-12-29T07:08:30;8.70;99.90
3942;DHT22;1985;48.592;8.850;2023-12-29T07:10:56;8.80;99.90
3942;DHT22;1985;48.592;8.850;2023-12-29T07:13:21;8.80;99.90
3942;DHT22;1985;48.592;8.850;2023-12-29T07:15:47;8.90;99.90
3942;DHT22;1985;48.592;8.850;2023-12-29T07:18:14;8.90;99.90
3942;DHT22;1985;48.592;8.850;2023-12-29T07:20:40;8.90;99.90
3942;DHT22;1985;48.592;8.850;2023-12-29T07:23:06;8.90;99.90
3942;DHT22;1985;48.592;8.850;2023-12-29T07:25:31;8.90;99.90
3942;DHT22;1985;48.592;8.850;2023-12-29T07:27:57;8.90;99.90
3942;DHT22;1985;48.592;8.850;2023-12-29T07:30:23;8.90;99.90
3942;DHT22;1985;48.592;8.850;2023-12-29T07:32:48;8.90;99.90
3942;DHT22;1985;48.592;8.850;2023-12-29T07:35:14;8.90;99.90
3942;DHT22;1985;48.592;8.850;2023-12-29T07:37:43;8.90;99.90
3942;DHT22;1985;48.592;8.850;2023-12-29T07:40:11;8.90;99.90
3942;DHT22;1985;48.592;8.850;2023-12-29T07:42:37;8.90;99.90
3942;DHT22;1985;48.592;8.850;2023-12-29T07:45:03;8.90;99.90
3942;DHT22;1985;48.592;8.850;2023-12-29T07:47:30;8.90;99.90
3942;DHT22;1985;48.592;8.850;2023-12-29T07:49:56;8.90;99.90
3942;DHT22;1985;48.592;8.850;2023-12-29T07:52:21;8.90;99.90
3942;DHT22;1985;48.592;8.850;2023-12-29T07:54:47;8.90;99.90
3942;DHT22;1985;48.592;8.850;2023-12-29T07:57:14;8.90;99.90
3942;DHT22;1985;48.592;8.850;2023-12-29T07:59:39;8.90;99.90
3942;DHT22;1985;48.592;8.850;2023-12-29T08:02:06;9.00;99.90
3942;DHT22;1985;48.592;8.850;2023-12-29T08:04:31;9.00;99.90
3942;DHT22;1985;48.592;8.850;2023-12-29T08:06:57;9.00;99.90
3942;DHT22;1985;48.592;8.850;2023-12-29T08:09:22;9.00;99.90
3942;DHT22;1985;48.592;8.850;2023-12-29T08:11:49;9.00;99.90
3942;DHT22;1985;48.592;8.850;2023-12-29T08:14:15;9.00;99.90
3942;DHT22;1985;48.592;8.850;2023-12-29T08:16:41;9.00;99.90
3942;DHT22;1985;48.592;8.850;2023-12-29T08:19:06;9.00;99.90
3942;DHT22;1985;48.592;8.850;2023-12-29T08:21:33;9.00;99.90
3942;DHT22;1985;48.592;8.850;2023-12-29T08:23:59;9.00;99.90
3942;DHT22;1985;48.592;8.850;2023-12-29T08:26:25;9.00;99.90
3942;DHT22;1985;48.592;8.850;2023-12-29T08:28:51;9.00;99.90
3942;DHT22;1985;48.592;8.850;2023-12-29T08:31:19;9.00;99.90
3942;DHT22;1985;48.592;8.850;2023-12-29T08:33:45;9.00;99.90
3942;DHT22;1985;48.592;8.850;2023-12-29T08:36:12;9.00;99.90
3942;DHT22;1985;48.592;8.850;2023-12-29T08:38:38;9.10;99.90
3942;DHT22;1985;48.592;8.850;2023-12-29T08:41:04;9.20;99.90
3942;DHT22;1985;48.592;8.850;2023-12-29T08:43:30;9.20;99.90
3942;DHT22;1985;48.592;8.850;2023-12-29T08:45:56;9.10;99.90
3942;DHT22;1985;48.592;8.850;2023-12-29T08:48:22;9.20;99.90
3942;DHT22;1985;48.592;8.850;2023-12-29T08:50:49;9.10;99.90
3942;DHT22;1985;48.592;8.850;2023-12-29T08:53:14;9.00;99.90
3942;DHT22;1985;48.592;8.850;2023-12-29T08:55:41;9.00;99.90
3942;DHT22;1985;48.592;8.850;2023-12-29T08:58:07;9.00;99.90
3942;DHT22;1985;48.592;8.850;2023-12-29T09:00:33;9.10;99.90
3942;DHT22;1985;48.592;8.850;2023-12-29T09:02:59;9.10;99.90
3942;DHT22;1985;48.592;8.850;2023-12-29T09:05:25;9.20;99.90
3942;DHT22;1985;48.592;8.850;2023-12-29T09:07:51;9.20;99.90
3942;DHT22;1985;48.592;8.850;2023-12-29T09:10:16;9.20;99.90
3942;DHT22;1985;48.592;8.850;2023-12-29T09:12:43;9.20;99.90
3942;DHT22;1985;48.592;8.850;2023-12-29T09:15:09;9.20;99.90
3942;DHT22;1985;48.592;8.850;2023-12-29T09:17:35;9.20;99.90
3942;DHT22;1985;48.592;8.850;2023-12-29T09:20:01;9.20;99.90
3942;DHT22;1985;48.592;8.850;2023-12-29T09:22:28;9.20;99.90
3942;DHT22;1985;48.592;8.850;2023-12-29T09:24:54;9.20;99.90
3942;DHT22;1985;48.592;8.850;2023-12-29T09:27:21;9.40;99.90
3942;DHT22;1985;48.592;8.850;2023-12-29T09:29:46;9.30;99.90
3942;DHT22;1985;48.592;8.850;2023-12-29T09:32:12;9.50;99.90
3942;DHT22;1985;48.592;8.850;2023-12-29T09:34:38;9.50;99.90
3942;DHT22;1985;48.592;8.850;2023-12-29T09:37:03;9.50;99.90
3942;DHT22;1985;48.592;8.850;2023-12-29T09:39:29;9.40;99.90
3942;DHT22;1985;48.592;8.850;2023-12-29T09:41:58;9.40;99.90
3942;DHT22;1985;48.592;8.850;2023-12-29T09:44:27;9.50;99.90
3942;DHT22;1985;48.592;8.850;2023-12-29T09:47:00;9.40;99.90
3942;DHT22;1985;48.592;8.850;2023-12-29T09:49:29;9.40;99.90
3942;DHT22;1985;48.592;8.850;2023-12-29T09:51:59;9.40;99.90
3942;DHT22;1985;48.592;8.850;2023-12-29T09:54:25;9.40;99.90
3942;DHT22;1985;48.592;8.850;2023-12-29T09:56:51;9.40;99.90
3942;DHT22;1985;48.592;8.850;2023-12-29T09:59:17;9.50;99.90
3942;DHT22;1985;48.592;8.850;2023-12-29T10:01:45;9.60;99.90
3942;DHT22;1985;48.592;8.850;2023-12-29T10:04:11;9.70;99.90
3942;DHT22;1985;48.592;8.850;2023-12-29T10:06:41;9.70;99.90
3942;DHT22;1985;48.592;8.850;2023-12-29T10:09:12;9.70;99.90
3942;DHT22;1985;48.592;8.850;2023-12-29T10:11:40;9.60;99.90
3942;DHT22;1985;48.592;8.850;2023-12-29T10:14:22;9.60;99.90
3942;DHT22;1985;48.592;8.850;2023-12-29T10:16:53;9.70;99.90
3942;DHT22;1985;48.592;8.850;2023-12-29T10:19:41;10.90;99.90
3942;DHT22;1985;48.592;8.850;2023-12-29T10:22:34;12.40;99.90
3942;DHT22;1985;48.592;8.850;2023-12-29T10:25:01;13.40;99.90
3942;DHT22;1985;48.592;8.850;2023-12-29T10:27:27;14.80;99.90
3942;DHT22;1985;48.592;8.850;2023-12-29T10:29:53;14.80;99.90
3942;DHT22;1985;48.592;8.850;2023-12-29T10:32:18;13.70;99.90
3942;DHT22;1985;48.592;8.850;2023-12-29T10:34:44;14.50;99.90
3942;DHT22;1985;48.592;8.850;2023-12-29T10:37:09;15.60;99.90
3942;DHT22;1985;48.592;8.850;2023-12-29T10:39:55;16.10;99.90
3942;DHT22;1985;48.592;8.850;2023-12-29T10:42:21;15.00;99.90
3942;DHT22;1985;48.592;8.850;2023-12-29T10:44:47;14.30;99.90
3942;DHT22;1985;48.592;8.850;2023-12-29T10:47:13;13.50;99.90
3942;DHT22;1985;48.592;8.850;2023-12-29T10:49:40;13.60;99.90
3942;DHT22;1985;48.592;8.850;2023-12-29T10:52:16;14.80;99.90
3942;DHT22;1985;48.592;8.850;2023-12-29T10:54:42;15.10;99.90
3942;DHT22;1985;48.592;8.850;2023-12-29T10:57:11;15.00;99.90
3942;DHT22;1985;48.592;8.850;2023-12-29T10:59:37;14.80;99.90
3942;DHT22;1985;48.592;8.850;2023-12-29T11:02:03;14.20;99.90
3942;DHT22;1985;48.592;8.850;2023-12-29T11:04:29;13.20;99.90
3942;DHT22;1985;48.592;8.850;2023-12-29T11:06:55;12.90;99.90
3942;DHT22;1985;48.592;8.850;2023-12-29T11:09:31;12.80;99.90
3942;DHT22;1985;48.592;8.850;2023-12-29T11:12:00;12.40;99.90
3942;DHT22;1985;48.592;8.850;2023-12-29T11:14:26;12.20;99.90
3942;DHT22;1985;48.592;8.850;2023-12-29T11:16:56;11.90;99.90
3942;DHT22;1985;48.592;8.850;2023-12-29T11:19:22;11.90;99.90
3942;DHT22;1985;48.592;8.850;2023-12-29T11:21:52;11.70;99.90
3942;DHT22;1985;48.592;8.850;2023-12-29T11:24:19;11.70;99.90
3942;DHT22;1985;48.592;8.850;2023-12-29T11:26:45;11.60;99.90
3942;DHT22;1985;48.592;8.850;2023-12-29T11:29:12;11.70;99.90
3942;DHT22;1985;48.592;8.850;2023-12-29T11:31:39;11.80;99.90
3942;DHT22;1985;48.592;8.850;2023-12-29T11:36:45;11.90;99.90
3942;DHT22;1985;48.592;8.850;2023-12-29T11:39:20;11.70;99.90
3942;DHT22;1985;48.592;8.850;2023-12-29T11:41:58;11.80;99.90
3942;DHT22;1985;48.592;8.850;2023-12-29T11:44:27;12.40;99.90
3942;DHT22;1985;48.592;8.850;2023-12-29T11:46:53;13.20;99.90
3942;DHT22;1985;48.592;8.850;2023-12-29T11:49:19;13.50;99.90
3942;DHT22;1985;48.592;8.850;2023-12-29T11:51:49;13.70;99.90
3942;DHT22;1985;48.592;8.850;2023-12-29T11:54:25;13.90;99.90
3942;DHT22;1985;48.592;8.850;2023-12-29T11:56:53;14.00;99.90
3942;DHT22;1985;48.592;8.850;2023-12-29T11:59:20;14.20;99.90
3942;DHT22;1985;48.592;8.850;2023-12-29T12:01:59;14.00;99.90
3942;DHT22;1985;48.592;8.850;2023-12-29T12:07:16;14.60;99.90
3942;DHT22;1985;48.592;8.850;2023-12-29T12:09:42;14.30;99.90
3942;DHT22;1985;48.592;8.850;2023-12-29T12:12:07;13.40;99.90
3942;DHT22;1985;48.592;8.850;2023-12-29T12:17:33;13.50;99.90
3942;DHT22;1985;48.592;8.850;2023-12-29T12:20:06;13.70;99.90
3942;DHT22;1985;48.592;8.850;2023-12-29T12:22:35;13.50;99.90
3942;DHT22;1985;48.592;8.850;2023-12-29T12:25:01;13.60;99.90
3942;DHT22;1985;48.592;8.850;2023-12-29T12:27:27;13.40;99.90
3942;DHT22;1985;48.592;8.850;2023-12-29T12:29:54;12.80;99.90
3942;DHT22;1985;48.592;8.850;2023-12-29T12:32:23;12.80;99.90
3942;DHT22;1985;48.592;8.850;2023-12-29T12:34:49;12.90;99.90
3942;DHT22;1985;48.592;8.850;2023-12-29T12:37:22;13.20;99.90
3942;DHT22;1985;48.592;8.850;2023-12-29T12:39:48;13.40;99.90
3942;DHT22;1985;48.592;8.850;2023-12-29T12:42:16;12.60;99.90
3942;DHT22;1985;48.592;8.850;2023-12-29T12:45:02;12.30;99.90
3942;DHT22;1985;48.592;8.850;2023-12-29T12:47:52;12.60;99.90
3942;DHT22;1985;48.592;8.850;2023-12-29T12:50:20;13.20;99.90
3942;DHT22;1985;48.592;8.850;2023-12-29T12:52:46;13.00;99.90
3942;DHT22;1985;48.592;8.850;2023-12-29T12:55:13;12.90;99.90
3942;DHT22;1985;48.592;8.850;2023-12-29T12:57:40;12.50;99.90
3942;DHT22;1985;48.592;8.850;2023-12-29T13:00:07;12.70;99.90
3942;DHT22;1985;48.592;8.850;2023-12-29T13:02:35;13.20;99.90
3942;DHT22;1985;48.592;8.850;2023-12-29T13:05:01;13.70;99.90
3942;DHT22;1985;48.592;8.850;2023-12-29T13:07:31;14.20;99.90
3942;DHT22;1985;48.592;8.850;2023-12-29T13:09:57;13.90;99.90
3942;DHT22;1985;48.592;8.850;2023-12-29T13:12:23;14.00;99.90
3942;DHT22;1985;48.592;8.850;2023-12-29T13:14:49;13.60;99.90
3942;DHT22;1985;48.592;8.850;2023-12-29T13:17:17;13.60;99.90
3942;DHT22;1985;48.592;8.850;2023-12-29T13:19:44;13.70;99.90
3942;DHT22;1985;48.592;8.850;2023-12-29T13:22:13;13.70;99.90
3942;DHT22;1985;48.592;8.850;2023-12-29T13:24:45;13.30;99.90
3942;DHT22;1985;48.592;8.850;2023-12-29T13:27:11;13.60;99.90
3942;DHT22;1985;48.592;8.850;2023-12-29T13:29:38;13.80;99.90
3942;DHT22;1985;48.592;8.850;2023-12-29T13:32:06;13.90;99.90
3942;DHT22;1985;48.592;8.850;2023-12-29T13:37:09;13.40;99.90
3942;DHT22;1985;48.592;8.850;2023-12-29T13:39:38;12.90;99.90
3942;DHT22;1985;48.592;8.850;2023-12-29T13:42:09;12.90;99.90
3942;DHT22;1985;48.592;8.850;2023-12-29T13:44:36;12.90;99.90
3942;DHT22;1985;48.592;8.850;2023-12-29T13:47:03;13.20;99.90
3942;DHT22;1985;48.592;8.850;2023-12-29T13:49:30;13.00;99.90
3942;DHT22;1985;48.592;8.850;2023-12-29T13:52:00;12.80;99.90
3942;DHT22;1985;48.592;8.850;2023-12-29T13:54:26;12.50;99.90
3942;DHT22;1985;48.592;8.850;2023-12-29T13:56:53;12.20;99.90
3942;DHT22;1985;48.592;8.850;2023-12-29T13:59:28;12.00;99.90
3942;DHT22;1985;48.592;8.850;2023-12-29T14:01:53;11.80;99.90
3942;DHT22;1985;48.592;8.850;2023-12-29T14:04:19;11.40;99.90
3942;DHT22;1985;48.592;8.850;2023-12-29T14:06:59;11.40;99.90
3942;DHT22;1985;48.592;8.850;2023-12-29T14:09:26;11.50;99.90
3942;DHT22;1985;48.592;8.850;2023-12-29T14:11:52;11.50;99.90
3942;DHT22;1985;48.592;8.850;2023-12-29T14:14:22;11.50;99.90
3942;DHT22;1985;48.592;8.850;2023-12-29T14:16:51;11.60;99.90
3942;DHT22;1985;48.592;8.850;2023-12-29T14:19:17;11.40;99.90
3942;DHT22;1985;48.592;8.850;2023-12-29T14:21:45;11.40;99.90
3942;DHT22;1985;48.592;8.850;2023-12-29T14:24:13;11.20;99.90
3942;DHT22;1985;48.592;8.850;2023-12-29T14:27:00;11.10;99.90
3942;DHT22;1985;48.592;8.850;2023-12-29T14:29:28;11.10;99.90
3942;DHT22;1985;48.592;8.850;2023-12-29T14:31:54;10.90;99.90
3942;DHT22;1985;48.592;8.850;2023-12-29T14:34:23;10.90;99.90
3942;DHT22;1985;48.592;8.850;2023-12-29T14:36:48;10.90;99.90
3942;DHT22;1985;48.592;8.850;2023-12-29T14:39:14;10.90;99.90
3942;DHT22;1985;48.592;8.850;2023-12-29T14:41:43;10.90;99.90
3942;DHT22;1985;48.592;8.850;2023-12-29T14:44:09;10.90;99.90
3942;DHT22;1985;48.592;8.850;2023-12-29T14:46:35;10.90;99.90
3942;DHT22;1985;48.592;8.850;2023-12-29T14:49:02;10.80;99.90
3942;DHT22;1985;48.592;8.850;2023-12-29T14:51:28;10.70;99.90
3942;DHT22;1985;48.592;8.850;2023-12-29T14:53:53;10.70;99.90
3942;DHT22;1985;48.592;8.850;2023-12-29T14:56:19;10.60;99.90
3942;DHT22;1985;48.592;8.850;2023-12-29T14:58:45;10.60;99.90
3942;DHT22;1985;48.592;8.850;2023-12-29T15:01:11;10.50;99.90
3942;DHT22;1985;48.592;8.850;2023-12-29T15:03:38;10.50;99.90
3942;DHT22;1985;48.592;8.850;2023-12-29T15:06:04;10.30;99.90
3942;DHT22;1985;48.592;8.850;2023-12-29T15:08:30;10.30;99.90
3942;DHT22;1985;48.592;8.850;2023-12-29T15:11:01;10.20;99.90
3942;DHT22;1985;48.592;8.850;2023-12-29T15:13:27;10.20;99.90
3942;DHT22;1985;48.592;8.850;2023-12-29T15:15:53;10.20;99.90
3942;DHT22;1985;48.592;8.850;2023-12-29T15:18:19;10.10;99.90
3942;DHT22;1985;48.592;8.850;2023-12-29T15:20:45;10.00;99.90
3942;DHT22;1985;48.592;8.850;2023-12-29T15:23:10;9.90;99.90
3942;DHT22;1985;48.592;8.850;2023-12-29T15:25:36;9.90;99.90
3942;DHT22;1985;48.592;8.850;2023-12-29T15:28:03;9.90;99.90
3942;DHT22;1985;48.592;8.850;2023-12-29T15:30:29;9.80;99.90
3942;DHT22;1985;48.592;8.850;2023-12-29T15:32:54;9.70;99.90
3942;DHT22;1985;48.592;8.850;2023-12-29T15:35:20;9.80;99.90
3942;DHT22;1985;48.592;8.850;2023-12-29T15:37:46;9.70;99.90
3942;DHT22;1985;48.592;8.850;2023-12-29T15:40:11;9.70;99.90
3942;DHT22;1985;48.592;8.850;2023-12-29T15:42:37;9.70;99.90
3942;DHT22;1985;48.592;8.850;2023-12-29T15:45:03;9.70;99.90
3942;DHT22;1985;48.592;8.850;2023-12-29T15:47:28;9.50;99.90
3942;DHT22;1985;48.592;8.850;2023-12-29T15:49:54;9.50;99.90
3942;DHT22;1985;48.592;8.850;2023-12-29T15:52:20;9.30;99.90
3942;DHT22;1985;48.592;8.850;2023-12-29T15:54:45;9.30;99.90
3942;DHT22;1985;48.592;8.850;2023-12-29T15:57:11;9.20;99.90
3942;DHT22;1985;48.592;8.850;2023-12-29T15:59:37;9.20;99.90
3942;DHT22;1985;48.592;8.850;2023-12-29T16:02:03;9.20;99.90
3942;DHT22;1985;48.592;8.850;2023-12-29T16:04:29;9.20;99.90
3942;DHT22;1985;48.592;8.850;2023-12-29T16:06:55;9.10;99.90
3942;DHT22;1985;48.592;8.850;2023-12-29T16:09:21;8.90;99.90
3942;DHT22;1985;48.592;8.850;2023-12-29T16:11:47;8.80;99.90
3942;DHT22;1985;48.592;8.850;2023-12-29T16:14:15;8.70;99.90
3942;DHT22;1985;48.592;8.850;2023-12-29T16:16:42;8.60;99.90
3942;DHT22;1985;48.592;8.850;2023-12-29T16:19:08;8.60;99.90
3942;DHT22;1985;48.592;8.850;2023-12-29T16:21:38;8.60;99.90
3942;DHT22;1985;48.592;8.850;2023-12-29T16:24:10;8.60;99.90
3942;DHT22;1985;48.592;8.850;2023-12-29T16:26:41;8.60;99.90
3942;DHT22;1985;48.592;8.850;2023-12-29T16:29:07;8.70;99.90